Hozan Maru — JJ4010 — position and weather

sailwx.info

Track history (hours):
 
Tides and Currents Weather Stations Pressure Air Temp Water Temp Dewpoint Dewpoint Depression Visibility Wind Speed Wind Dir Waves Ship Positions

Hozan Maru

Last reported at 2016-Feb-09 04:06 UTC. Time now 2016-Feb-09 05:47 UTC.
Position N 34°38' E 134°53'.

Length 38 m; draft 3.6 m.

Type: Tug. MMSI: 431401501.

Date/timePositionNaut miles runAvg speedWind from/ knotsBaromVisibWave heightAir tempDewpointWater temp
2016-Feb-09 04:06N 34°38' E 134°53'610.5
2016-Feb-09 03:33N 34°38' E 135°00'1212.0
2016-Feb-09 02:33N 34°39' E 135°15'8 2.7
2016-Feb-08 23:32N 34°39' E 135°25'6 6.3
2016-Feb-08 22:33N 34°33' E 135°25'3 2.4
2016-Feb-08 21:25N 34°34' E 135°23'  
2016-Feb-05 04:33N 34°39' E 135°25'7 6.0
2016-Feb-05 03:28N 34°33' E 135°25'1 1.0
2016-Feb-05 02:33N 34°33' E 135°25'4 4.0
2016-Feb-05 01:34N 34°34' E 135°20'6 5.5
2016-Feb-05 00:34N 34°33' E 135°27'1 1.2
2016-Feb-04 23:26N 34°34' E 135°25'2 2.4
2016-Feb-04 22:32N 34°34' E 135°23'7 0.5
2016-Feb-04 07:16N 34°40' E 135°27'0 0.1
2016-Feb-04 06:32N 34°40' E 135°27'2 1.9
2016-Feb-04 05:33N 34°38' E 135°27'1 1.2
2016-Feb-04 04:33N 34°40' E 135°26'1 0.4
2016-Feb-04 01:33N 34°39' E 135°25'6 6.0
2016-Feb-04 00:33N 34°40' E 135°18'0 0.1
2016-Feb-03 23:33N 34°40' E 135°18'0 0.0
2016-Feb-03 22:33N 34°40' E 135°18'0 0.2
2016-Feb-03 21:33N 34°40' E 135°17'8 7.5
2016-Feb-03 20:33N 34°40' E 135°27'0 0.0
2016-Feb-03 06:25N 34°40' E 135°27'8 8.8
2016-Feb-03 05:34N 34°40' E 135°18'0 0.1
2016-Feb-03 04:33N 34°40' E 135°17'0 0.2
2016-Feb-03 03:33N 34°40' E 135°18'0 0.3
2016-Feb-03 02:33N 34°40' E 135°17'0 0.3
2016-Feb-03 01:34N 34°40' E 135°18'0 0.1
2016-Feb-03 00:34N 34°40' E 135°18'0 0.2
2016-Feb-02 23:33N 34°40' E 135°17'0 0.3
2016-Feb-02 22:33N 34°40' E 135°18'0 0.0
2016-Feb-02 21:33N 34°40' E 135°18'8 7.5
2016-Feb-02 20:32N 34°40' E 135°27'2 0.1
2016-Feb-02 02:11N 34°38' E 135°27'0 0.1
2016-Feb-02 01:30N 34°38' E 135°27'0 0.3
2016-Feb-02 00:33N 34°38' E 135°27'7 6.9
2016-Feb-01 23:32N 34°33' E 135°21'7 7.0
2016-Feb-01 22:31N 34°26' E 135°19'3 3.2
2016-Feb-01 21:30N 34°29' E 135°19'1212.8
2016-Feb-01 20:33N 34°40' E 135°26'0 0.0
2016-Feb-01 09:05N 34°40' E 135°26'611.3
2016-Feb-01 08:33N 34°34' E 135°23'2 2.5
2016-Feb-01 07:33N 34°32' E 135°24'1 0.4
2016-Feb-01 06:21N 34°31' E 135°24'1 0.9
2016-Feb-01 05:32N 34°31' E 135°23'0 0.1
2016-Feb-01 04:32N 34°31' E 135°23'0 0.0
2016-Feb-01 03:33N 34°31' E 135°23'0 0.0
2016-Feb-01 02:32N 34°31' E 135°23'0 0.0
2016-Feb-01 01:33N 34°31' E 135°23'0 0.0
2016-Feb-01 00:30N 34°31' E 135°23'4 3.8
2016-Jan-31 23:33N 34°28' E 135°20'2 2.5
2016-Jan-31 22:33N 34°26' E 135°19'2 2.1
2016-Jan-31 21:27N 34°28' E 135°19'1112.2
2016-Jan-31 20:33N 34°39' E 135°24'2 0.2
2016-Jan-31 10:24N 34°40' E 135°26'2 1.7
2016-Jan-31 09:27N 34°38' E 135°26'2 2.3
2016-Jan-31 08:33N 34°40' E 135°27'0 0.0
2016-Jan-31 07:11N 34°40' E 135°27'0 0.0
2016-Jan-31 06:31N 34°40' E 135°27'6 6.3
2016-Jan-31 05:33N 34°35' E 135°23'3 2.0
2016-Jan-31 04:10N 34°33' E 135°25'0 0.1
2016-Jan-31 03:31N 34°33' E 135°25'2 2.6
2016-Jan-31 02:34N 34°33' E 135°22'3 2.6
2016-Jan-31 01:33N 34°34' E 135°19'6 5.4
2016-Jan-31 00:32N 34°33' E 135°26'0 0.1
2016-Jan-30 23:30N 34°33' E 135°26'6 6.6
2016-Jan-30 22:33N 34°40' E 135°26'5 0.3
2016-Jan-30 05:33N 34°42' E 135°20'3 2.7
2016-Jan-30 04:33N 34°40' E 135°18'  
Track history (hours):
 
Tides and Currents Weather Stations Pressure Air Temp Water Temp Dewpoint Dewpoint Depression Visibility Wind Speed Wind Dir Waves Ship Positions

Hozan Maru

Last reported at 2016-Feb-09 04:06 UTC. Time now 2016-Feb-09 05:47 UTC.
Position N 34°38' E 134°53'.

Length 38 m; draft 3.6 m.

Type: Tug. MMSI: 431401501.

Date/timePositionNaut miles runAvg speedWind from/ knotsBaromVisibWave heightAir tempDewpointWater temp
2016-Feb-09 04:06N 34°38' E 134°53'610.5
2016-Feb-09 03:33N 34°38' E 135°00'1212.0
2016-Feb-09 02:33N 34°39' E 135°15'8 2.7
2016-Feb-08 23:32N 34°39' E 135°25'6 6.3
2016-Feb-08 22:33N 34°33' E 135°25'3 2.4
2016-Feb-08 21:25N 34°34' E 135°23'  
2016-Feb-05 04:33N 34°39' E 135°25'7 6.0
2016-Feb-05 03:28N 34°33' E 135°25'1 1.0
2016-Feb-05 02:33N 34°33' E 135°25'4 4.0
2016-Feb-05 01:34N 34°34' E 135°20'6 5.5
2016-Feb-05 00:34N 34°33' E 135°27'1 1.2
2016-Feb-04 23:26N 34°34' E 135°25'2 2.4
2016-Feb-04 22:32N 34°34' E 135°23'7 0.5
2016-Feb-04 07:16N 34°40' E 135°27'0 0.1
2016-Feb-04 06:32N 34°40' E 135°27'2 1.9
2016-Feb-04 05:33N 34°38' E 135°27'1 1.2
2016-Feb-04 04:33N 34°40' E 135°26'1 0.4
2016-Feb-04 01:33N 34°39' E 135°25'6 6.0
2016-Feb-04 00:33N 34°40' E 135°18'0 0.1
2016-Feb-03 23:33N 34°40' E 135°18'0 0.0
2016-Feb-03 22:33N 34°40' E 135°18'0 0.2
2016-Feb-03 21:33N 34°40' E 135°17'8 7.5
2016-Feb-03 20:33N 34°40' E 135°27'0 0.0
2016-Feb-03 06:25N 34°40' E 135°27'8 8.8
2016-Feb-03 05:34N 34°40' E 135°18'0 0.1
2016-Feb-03 04:33N 34°40' E 135°17'0 0.2
2016-Feb-03 03:33N 34°40' E 135°18'0 0.3
2016-Feb-03 02:33N 34°40' E 135°17'0 0.3
2016-Feb-03 01:34N 34°40' E 135°18'0 0.1
2016-Feb-03 00:34N 34°40' E 135°18'0 0.2
2016-Feb-02 23:33N 34°40' E 135°17'0 0.3
2016-Feb-02 22:33N 34°40' E 135°18'0 0.0
2016-Feb-02 21:33N 34°40' E 135°18'8 7.5
2016-Feb-02 20:32N 34°40' E 135°27'2 0.1
2016-Feb-02 02:11N 34°38' E 135°27'0 0.1
2016-Feb-02 01:30N 34°38' E 135°27'0 0.3
2016-Feb-02 00:33N 34°38' E 135°27'7 6.9
2016-Feb-01 23:32N 34°33' E 135°21'7 7.0
2016-Feb-01 22:31N 34°26' E 135°19'3 3.2
2016-Feb-01 21:30N 34°29' E 135°19'1212.8
2016-Feb-01 20:33N 34°40' E 135°26'0 0.0
2016-Feb-01 09:05N 34°40' E 135°26'611.3
2016-Feb-01 08:33N 34°34' E 135°23'2 2.5
2016-Feb-01 07:33N 34°32' E 135°24'1 0.4
2016-Feb-01 06:21N 34°31' E 135°24'1 0.9
2016-Feb-01 05:32N 34°31' E 135°23'0 0.1
2016-Feb-01 04:32N 34°31' E 135°23'0 0.0
2016-Feb-01 03:33N 34°31' E 135°23'0 0.0
2016-Feb-01 02:32N 34°31' E 135°23'0 0.0
2016-Feb-01 01:33N 34°31' E 135°23'0 0.0
2016-Feb-01 00:30N 34°31' E 135°23'4 3.8
2016-Jan-31 23:33N 34°28' E 135°20'2 2.5
2016-Jan-31 22:33N 34°26' E 135°19'2 2.1
2016-Jan-31 21:27N 34°28' E 135°19'1112.2
2016-Jan-31 20:33N 34°39' E 135°24'2 0.2
2016-Jan-31 10:24N 34°40' E 135°26'2 1.7
2016-Jan-31 09:27N 34°38' E 135°26'2 2.3
2016-Jan-31 08:33N 34°40' E 135°27'0 0.0
2016-Jan-31 07:11N 34°40' E 135°27'0 0.0
2016-Jan-31 06:31N 34°40' E 135°27'6 6.3
2016-Jan-31 05:33N 34°35' E 135°23'3 2.0
2016-Jan-31 04:10N 34°33' E 135°25'0 0.1
2016-Jan-31 03:31N 34°33' E 135°25'2 2.6
2016-Jan-31 02:34N 34°33' E 135°22'3 2.6
2016-Jan-31 01:33N 34°34' E 135°19'6 5.4
2016-Jan-31 00:32N 34°33' E 135°26'0 0.1
2016-Jan-30 23:30N 34°33' E 135°26'6 6.6
2016-Jan-30 22:33N 34°40' E 135°26'5 0.3
2016-Jan-30 05:33N 34°42' E 135°20'3 2.7
2016-Jan-30 04:33N 34°40' E 135°18'  

Dump ship's entire track history